createdAt,value
2023-03-29T00:00:49.670Z,101658.19
2023-03-29T00:03:17.037Z,101649.97
2023-03-29T00:05:44.718Z,101661.53
2023-03-29T00:08:14.415Z,101647.09
2023-03-29T00:10:42.253Z,101650.81
2023-03-29T00:13:08.849Z,101644.41
2023-03-29T00:15:35.593Z,101641.56
2023-03-29T00:18:02.301Z,101635.22
2023-03-29T00:20:29.064Z,101641.25
2023-03-29T00:22:55.652Z,101643.91
2023-03-29T00:25:22.194Z,101639.22
2023-03-29T00:27:48.943Z,101623.13
2023-03-29T00:30:16.500Z,101619.41
2023-03-29T00:32:43.278Z,101611.38
2023-03-29T00:35:10.974Z,101598.78
2023-03-29T00:37:38.002Z,101596.94
2023-03-29T00:40:10.669Z,101594.25
2023-03-29T00:42:38.036Z,101595.28
2023-03-29T00:45:19.189Z,101590.56
2023-03-29T00:47:57.715Z,101593.72
2023-03-29T00:50:32.327Z,101589.84
2023-03-29T00:53:07.280Z,101578.78
2023-03-29T00:55:49.324Z,101573.25
2023-03-29T00:58:21.428Z,101579.09
2023-03-29T01:00:57.824Z,101582.41
2023-03-29T01:03:28.368Z,101575.03
2023-03-29T01:06:01.029Z,101571.97
2023-03-29T01:08:44.087Z,101574.34
2023-03-29T01:11:29.178Z,101555.00
2023-03-29T01:14:06.430Z,101550.09
2023-03-29T01:16:35.875Z,101542.69
2023-03-29T01:19:03.134Z,101553.06
2023-03-29T01:21:44.390Z,101542.16
2023-03-29T01:24:20.083Z,101542.00
2023-03-29T01:27:05.418Z,101549.69
2023-03-29T01:29:37.268Z,101547.66
2023-03-29T01:32:09.739Z,101547.28
2023-03-29T01:34:53.245Z,101541.75
2023-03-29T01:37:28.721Z,101551.28
2023-03-29T01:39:55.236Z,101547.41
2023-03-29T01:42:56.119Z,101534.47
2023-03-29T01:45:58.364Z,101534.09
2023-03-29T01:48:33.959Z,101532.06
2023-03-29T01:51:09.925Z,101525.66
2023-03-29T01:54:02.677Z,101530.84
2023-03-29T01:56:34.014Z,101525.13
2023-03-29T01:59:04.441Z,101524.78
2023-03-29T02:01:38.444Z,101522.72
2023-03-29T02:04:10.477Z,101523.38
2023-03-29T02:06:39.594Z,101520.50
2023-03-29T02:09:07.021Z,101515.13
2023-03-29T02:11:35.851Z,101519.50
2023-03-29T02:14:02.386Z,101510.41
2023-03-29T02:16:28.909Z,101504.22
2023-03-29T02:18:57.588Z,101506.72
2023-03-29T02:21:29.779Z,101504.22
2023-03-29T02:23:59.896Z,101496.34
2023-03-29T02:26:27.757Z,101497.16
2023-03-29T02:28:55.780Z,101503.38
2023-03-29T02:31:42.665Z,101487.25
2023-03-29T02:34:40.041Z,101487.25
2023-03-29T02:37:11.630Z,101486.88
2023-03-29T02:39:39.598Z,101484.19
2023-03-29T02:42:07.375Z,101483.19
2023-03-29T02:44:39.296Z,101484.84
2023-03-29T02:47:19.583Z,101482.34
2023-03-29T02:49:46.110Z,101490.22
2023-03-29T02:52:17.626Z,101474.09
2023-03-29T02:54:47.390Z,101474.59
2023-03-29T02:57:14.056Z,101471.03
2023-03-29T02:59:43.844Z,101471.03
2023-03-29T03:02:11.679Z,101471.72
2023-03-29T03:04:38.312Z,101467.16
2023-03-29T03:07:07.467Z,101470.69
2023-03-29T03:09:34.336Z,101464.66
2023-03-29T03:12:01.058Z,101464.66
2023-03-29T03:14:28.192Z,101462.63
2023-03-29T03:16:57.767Z,101453.91
2023-03-29T03:19:24.755Z,101448.53
2023-03-29T03:21:51.738Z,101439.47
2023-03-29T03:24:18.382Z,101430.72
2023-03-29T03:26:46.313Z,101427.06
2023-03-29T03:29:15.432Z,101426.88
2023-03-29T03:32:04.001Z,101432.06
2023-03-29T03:34:54.049Z,101428.34
2023-03-29T03:37:23.788Z,101435.22
2023-03-29T03:39:50.467Z,101429.84
2023-03-29T03:42:17.327Z,101428.00
2023-03-29T03:44:45.280Z,101427.63
2023-03-29T03:47:32.042Z,101427.63
2023-03-29T03:50:11.979Z,101430.94
2023-03-29T03:52:38.392Z,101429.28
2023-03-29T03:55:05.592Z,101429.28
2023-03-29T03:57:42.681Z,101430.94
2023-03-29T04:00:19.659Z,101436.31
2023-03-29T04:02:54.169Z,101433.63
2023-03-29T04:05:20.862Z,101434.47
2023-03-29T04:07:47.585Z,101426.41
2023-03-29T04:10:29.505Z,101434.47
2023-03-29T04:13:08.852Z,101430.75
2023-03-29T04:15:54.062Z,101426.41
2023-03-29T04:18:21.360Z,101426.41
2023-03-29T04:20:52.978Z,101425.56
2023-03-29T04:23:22.218Z,101421.88
2023-03-29T04:25:49.236Z,101416.50
2023-03-29T04:28:50.778Z,101411.13
2023-03-29T04:31:27.790Z,101417.31
2023-03-29T04:34:14.705Z,101408.44
2023-03-29T04:36:41.507Z,101400.38
2023-03-29T04:39:17.955Z,101413.59
2023-03-29T04:41:47.223Z,101407.41
2023-03-29T04:44:19.122Z,101398.50
2023-03-29T04:46:45.705Z,101399.19
2023-03-29T04:49:15.228Z,101405.38
2023-03-29T04:51:45.669Z,101405.38
2023-03-29T04:54:12.185Z,101392.59
2023-03-29T04:56:54.812Z,101398.63
2023-03-29T04:59:44.449Z,101398.41
2023-03-29T05:02:32.390Z,101404.63
2023-03-29T05:04:59.380Z,101400.09
2023-03-29T05:07:25.890Z,101403.41
2023-03-29T05:09:52.688Z,101398.88
2023-03-29T05:12:21.078Z,101395.16
2023-03-29T05:14:57.322Z,101387.94
2023-03-29T05:17:27.414Z,101388.56
2023-03-29T05:19:58.577Z,101378.66
2023-03-29T05:22:25.910Z,101391.06
2023-03-29T05:24:52.889Z,101375.81
2023-03-29T05:27:22.901Z,101386.16
2023-03-29T05:30:03.702Z,101390.31
2023-03-29T05:32:42.726Z,101385.59
2023-03-29T05:35:11.704Z,101383.75
2023-03-29T05:37:39.000Z,101394.09
2023-03-29T05:40:08.484Z,101399.47
2023-03-29T05:42:48.621Z,101392.88
2023-03-29T05:45:16.087Z,101394.56
2023-03-29T05:47:42.814Z,101400.59
2023-03-29T05:50:10.255Z,101394.00
2023-03-29T05:52:37.860Z,101394.66
2023-03-29T05:55:04.894Z,101396.31
2023-03-29T05:57:31.614Z,101401.50
2023-03-29T05:59:58.148Z,101398.63
2023-03-29T06:02:26.012Z,101387.03
2023-03-29T06:04:54.053Z,101400.91
2023-03-29T06:07:23.427Z,101397.00
2023-03-29T06:10:15.787Z,101398.50
2023-03-29T06:12:49.454Z,101397.28
2023-03-29T06:15:18.038Z,101406.00
2023-03-29T06:17:47.282Z,101396.53
2023-03-29T06:20:14.824Z,101397.97
2023-03-29T06:22:46.613Z,101399.50
2023-03-29T06:25:15.261Z,101403.25
2023-03-29T06:27:46.626Z,101408.06
2023-03-29T06:30:15.913Z,101406.28
2023-03-29T06:32:46.388Z,101405.88
2023-03-29T06:35:43.567Z,101406.75
2023-03-29T06:38:15.145Z,101403.53
2023-03-29T06:41:11.157Z,101409.59
2023-03-29T06:43:57.760Z,101401.75
2023-03-29T06:46:31.550Z,101403.03
2023-03-29T06:49:01.458Z,101408.66
2023-03-29T06:51:42.608Z,101411.59
2023-03-29T06:54:09.218Z,101418.28
2023-03-29T06:56:39.560Z,101407.16
2023-03-29T06:59:11.533Z,101410.53
2023-03-29T07:01:47.205Z,101411.81
2023-03-29T07:04:26.266Z,101410.78
2023-03-29T07:07:12.206Z,101418.06
2023-03-29T07:09:41.282Z,101423.72
2023-03-29T07:12:30.922Z,101417.53
2023-03-29T07:14:59.904Z,101414.50
2023-03-29T07:17:49.784Z,101422.31
2023-03-29T07:20:16.600Z,101402.69
2023-03-29T07:22:52.896Z,101404.84
2023-03-29T07:25:22.311Z,101409.66
2023-03-29T07:27:50.299Z,101410.69
2023-03-29T07:30:19.346Z,101413.16
2023-03-29T07:32:46.476Z,101417.69
2023-03-29T07:35:27.835Z,101415.00
2023-03-29T07:37:55.750Z,101416.47
2023-03-29T07:40:24.595Z,101424.97
2023-03-29T07:42:57.005Z,101426.22
2023-03-29T07:45:28.679Z,101418.53
2023-03-29T07:48:01.167Z,101423.50
2023-03-29T07:50:39.078Z,101435.41
2023-03-29T07:53:06.254Z,101430.19
2023-03-29T07:55:33.201Z,101427.28
2023-03-29T07:58:22.484Z,101424.59
2023-03-29T08:00:49.149Z,101423.81
2023-03-29T08:03:36.135Z,101415.50
2023-03-29T08:06:05.027Z,101421.53
2023-03-29T08:08:31.836Z,101424.47
2023-03-29T08:11:04.096Z,101419.84
2023-03-29T08:13:43.390Z,101421.13
2023-03-29T08:16:28.515Z,101430.28
2023-03-29T08:19:08.561Z,101430.91
2023-03-29T08:21:51.956Z,101424.47
2023-03-29T08:24:21.000Z,101428.81
2023-03-29T08:26:51.940Z,101421.56
2023-03-29T08:29:19.790Z,101419.91
2023-03-29T08:31:46.336Z,101423.22
2023-03-29T08:34:13.437Z,101423.22
2023-03-29T08:36:55.658Z,101411.16
2023-03-29T08:39:32.671Z,101414.50
2023-03-29T08:43:01.714Z,101412.81
2023-03-29T08:46:14.969Z,101406.56
2023-03-29T08:48:48.499Z,101402.38
2023-03-29T08:51:27.613Z,101407.41
2023-03-29T08:54:11.360Z,101410.69
2023-03-29T08:57:33.257Z,101412.13
2023-03-29T09:00:10.438Z,101419.41
2023-03-29T09:02:38.297Z,101420.47
2023-03-29T09:05:22.667Z,101433.16
2023-03-29T09:08:18.141Z,101421.88
2023-03-29T09:10:57.975Z,101423.97
2023-03-29T09:13:27.921Z,101432.09
2023-03-29T09:16:00.573Z,101424.78
2023-03-29T09:18:46.449Z,101425.19
2023-03-29T09:21:22.657Z,101433.94
2023-03-29T09:24:13.620Z,101435.56
2023-03-29T09:26:54.715Z,101415.19
2023-03-29T09:30:08.944Z,101423.50
2023-03-29T09:33:06.027Z,101413.72
2023-03-29T09:36:04.224Z,101410.97
2023-03-29T09:38:43.199Z,101424.91
2023-03-29T09:41:38.237Z,101421.34
2023-03-29T09:44:24.137Z,101421.50
2023-03-29T09:47:01.266Z,101423.94
2023-03-29T09:49:37.726Z,101419.06
2023-03-29T09:52:11.367Z,101410.09
2023-03-29T09:54:38.505Z,101416.44
2023-03-29T09:57:31.279Z,101403.47
2023-03-29T10:00:01.743Z,101415.50
2023-03-29T10:02:31.357Z,101413.44
2023-03-29T10:05:03.763Z,101416.97
2023-03-29T10:07:41.203Z,101417.41
2023-03-29T10:10:10.455Z,101423.53
2023-03-29T10:12:37.374Z,101421.03
2023-03-29T10:15:05.393Z,101417.88
2023-03-29T10:17:39.700Z,101417.41
2023-03-29T10:20:09.684Z,101408.84
2023-03-29T10:22:37.885Z,101410.56
2023-03-29T10:25:12.672Z,101401.25
2023-03-29T10:27:41.813Z,101413.25
2023-03-29T10:30:12.875Z,101401.47
2023-03-29T10:32:41.089Z,101404.81
2023-03-29T10:35:19.901Z,101408.13
2023-03-29T10:37:50.996Z,101410.56
2023-03-29T10:40:24.298Z,101399.41
2023-03-29T10:42:51.877Z,101399.72
2023-03-29T10:45:23.908Z,101402.81
2023-03-29T10:47:50.627Z,101404.19
2023-03-29T10:50:17.239Z,101400.41
2023-03-29T10:52:43.778Z,101388.66
2023-03-29T10:55:13.849Z,101385.22
2023-03-29T10:58:07.903Z,101391.03
2023-03-29T11:00:52.574Z,101386.16
2023-03-29T11:03:38.399Z,101377.41
2023-03-29T11:06:50.836Z,101370.94
2023-03-29T11:09:32.004Z,101376.81
2023-03-29T11:12:34.247Z,101372.25
2023-03-29T11:15:27.345Z,101373.19
2023-03-29T11:18:18.447Z,101371.22
2023-03-29T11:20:54.376Z,101370.13
2023-03-29T11:23:39.750Z,101371.91
2023-03-29T11:26:30.189Z,101358.53
2023-03-29T11:29:07.109Z,101365.47
2023-03-29T11:31:39.352Z,101366.53
2023-03-29T11:34:15.446Z,101366.94
2023-03-29T11:36:57.880Z,101368.94
2023-03-29T11:39:33.942Z,101360.91
2023-03-29T11:42:12.355Z,101363.50
2023-03-29T11:44:41.540Z,101365.63
2023-03-29T11:47:16.918Z,101365.47
2023-03-29T11:49:46.188Z,101360.13
2023-03-29T11:52:18.496Z,101362.69
2023-03-29T11:55:04.100Z,101361.13
2023-03-29T11:57:36.350Z,101357.06
2023-03-29T12:00:12.914Z,101364.91
2023-03-29T12:02:50.608Z,101368.94
2023-03-29T12:05:41.922Z,101380.78
2023-03-29T12:08:33.375Z,101367.22
2023-03-29T12:11:07.888Z,101361.78
2023-03-29T12:13:40.258Z,101372.34
2023-03-29T12:16:27.931Z,101360.13
2023-03-29T12:18:57.695Z,101369.38
2023-03-29T12:21:27.897Z,101362.75
2023-03-29T12:23:54.747Z,101356.28
2023-03-29T12:26:50.534Z,101344.72
2023-03-29T12:29:35.875Z,101349.94
2023-03-29T12:32:27.550Z,101348.72
2023-03-29T12:35:31.864Z,101353.66
2023-03-29T12:38:27.641Z,101350.78
2023-03-29T12:41:24.664Z,101352.53
2023-03-29T12:44:23.617Z,101343.53
2023-03-29T12:47:19.140Z,101355.63
2023-03-29T12:49:47.284Z,101353.25
2023-03-29T12:52:30.799Z,101357.69
2023-03-29T12:55:00.168Z,101344.56
2023-03-29T12:57:44.099Z,101348.31
2023-03-29T13:00:20.400Z,101331.00
2023-03-29T13:03:00.183Z,101302.78
2023-03-29T13:05:29.854Z,101301.28
2023-03-29T13:07:56.332Z,101288.63
2023-03-29T13:10:42.151Z,101293.88
2023-03-29T13:13:21.405Z,101295.44
2023-03-29T13:15:48.030Z,101289.59
2023-03-29T13:18:43.438Z,101282.34
2023-03-29T13:21:14.702Z,101279.09
2023-03-29T13:23:52.088Z,101272.97
2023-03-29T13:26:40.823Z,101272.38
2023-03-29T13:29:43.236Z,101266.34
2023-03-29T13:32:31.359Z,101254.91
2023-03-29T13:35:10.356Z,101264.94
2023-03-29T13:37:58.047Z,101259.44
2023-03-29T13:40:29.946Z,101252.59
2023-03-29T13:43:00.166Z,101263.38
2023-03-29T13:45:27.898Z,101269.06
2023-03-29T13:48:31.535Z,101263.38
2023-03-29T13:51:01.052Z,101257.84
2023-03-29T13:53:58.257Z,101260.94
2023-03-29T13:56:39.923Z,101264.34
2023-03-29T13:59:18.991Z,101256.44
2023-03-29T14:01:53.426Z,101242.38
2023-03-29T14:04:31.428Z,101243.47
2023-03-29T14:06:59.393Z,101231.41
2023-03-29T14:09:30.768Z,101227.41
2023-03-29T14:12:00.285Z,101230.00
2023-03-29T14:14:30.199Z,101226.00
2023-03-29T14:16:57.236Z,101217.22
2023-03-29T14:19:32.876Z,101212.75
2023-03-29T14:22:01.586Z,101218.06
2023-03-29T14:24:35.865Z,101208.97
2023-03-29T14:27:04.985Z,101210.03
2023-03-29T14:29:35.793Z,101213.47
2023-03-29T14:32:13.626Z,101202.94
2023-03-29T14:34:40.445Z,101200.34
2023-03-29T14:37:08.943Z,101195.72
2023-03-29T14:39:35.959Z,101190.81
2023-03-29T14:42:03.019Z,101189.63
2023-03-29T14:44:34.648Z,101177.50
2023-03-29T14:47:02.870Z,101173.25
2023-03-29T14:49:29.834Z,101170.47
2023-03-29T14:51:57.132Z,101171.16
2023-03-29T14:54:28.901Z,101168.63
2023-03-29T14:56:55.956Z,101166.06
2023-03-29T14:59:43.061Z,101154.22
2023-03-29T15:02:33.650Z,101153.44
2023-03-29T15:05:04.470Z,101154.34
2023-03-29T15:07:33.516Z,101148.75
2023-03-29T15:10:02.325Z,101138.94
2023-03-29T15:12:31.264Z,101141.16
2023-03-29T15:14:59.401Z,101133.25
2023-03-29T15:17:50.308Z,101129.91
2023-03-29T15:20:25.700Z,101120.59
2023-03-29T15:23:00.086Z,101127.81
2023-03-29T15:25:49.059Z,101121.53
2023-03-29T15:28:32.332Z,101116.81
2023-03-29T15:31:07.814Z,101118.47
2023-03-29T15:33:39.884Z,101117.97
2023-03-29T15:36:08.574Z,101110.28
2023-03-29T15:38:44.137Z,101104.53
2023-03-29T15:41:15.241Z,101102.28
2023-03-29T15:43:41.963Z,101100.16
2023-03-29T15:46:10.649Z,101090.00
2023-03-29T15:48:37.350Z,101093.38
2023-03-29T15:51:06.487Z,101092.47
2023-03-29T15:53:33.361Z,101089.75
2023-03-29T15:56:01.653Z,101086.97
2023-03-29T15:58:31.456Z,101084.81
2023-03-29T16:01:10.985Z,101070.72
2023-03-29T16:03:38.717Z,101066.34
2023-03-29T16:06:06.036Z,101063.63
2023-03-29T16:08:32.434Z,101050.56
2023-03-29T16:10:58.875Z,101052.72
2023-03-29T16:13:25.549Z,101059.81
2023-03-29T16:15:52.053Z,101050.75
2023-03-29T16:18:18.459Z,101037.03
2023-03-29T16:20:44.877Z,101040.84
2023-03-29T16:23:11.983Z,101027.47
2023-03-29T16:25:40.319Z,101017.94
2023-03-29T16:28:09.013Z,101026.34
2023-03-29T16:30:37.222Z,101013.81
2023-03-29T16:33:07.958Z,101010.97
2023-03-29T16:35:37.343Z,101002.25
2023-03-29T16:38:04.302Z,101004.41
2023-03-29T16:40:30.745Z,100986.94
2023-03-29T16:42:57.160Z,100984.47
2023-03-29T16:45:23.609Z,100979.84
2023-03-29T16:47:50.256Z,100969.47
2023-03-29T16:50:18.814Z,100962.78
2023-03-29T16:52:47.803Z,100965.41
2023-03-29T16:55:18.779Z,100973.81
2023-03-29T16:57:47.130Z,100983.28
2023-03-29T17:00:15.981Z,100975.88
2023-03-29T17:02:49.548Z,100976.69
2023-03-29T17:05:17.246Z,100973.41
2023-03-29T17:07:44.286Z,100961.94
2023-03-29T17:10:12.202Z,100974.41
2023-03-29T17:12:39.045Z,100972.75
2023-03-29T17:15:07.459Z,100972.13
2023-03-29T17:17:34.715Z,100967.78
2023-03-29T17:20:01.531Z,100973.47
2023-03-29T17:22:28.033Z,100961.19
2023-03-29T17:24:54.528Z,100950.31
2023-03-29T17:27:21.099Z,100950.31
2023-03-29T17:29:47.680Z,100953.50
2023-03-29T17:32:14.152Z,100945.84
2023-03-29T17:34:40.799Z,100941.72
2023-03-29T17:37:07.629Z,100941.72
2023-03-29T17:39:37.363Z,100945.50
2023-03-29T17:42:05.098Z,100931.31
2023-03-29T17:44:33.111Z,100930.16
2023-03-29T17:47:00.420Z,100923.56
2023-03-29T17:49:26.926Z,100917.00
2023-03-29T17:51:53.357Z,100918.28
2023-03-29T17:54:19.735Z,100913.84
2023-03-29T17:56:46.132Z,100916.47
2023-03-29T17:59:12.640Z,100916.59
2023-03-29T18:01:39.533Z,100913.81
2023-03-29T18:04:06.306Z,100919.41
2023-03-29T18:06:33.256Z,100913.28
2023-03-29T18:09:01.460Z,100911.28
2023-03-29T18:11:28.399Z,100901.75
2023-03-29T18:13:54.980Z,100907.66
2023-03-29T18:16:22.328Z,100901.88
2023-03-29T18:18:49.197Z,100904.81
2023-03-29T18:21:16.456Z,100910.75
2023-03-29T18:23:47.695Z,100899.31
2023-03-29T18:26:15.822Z,100898.72
2023-03-29T18:28:46.516Z,100902.97
2023-03-29T18:31:13.338Z,100901.31
2023-03-29T18:33:39.961Z,100884.69
2023-03-29T18:36:10.830Z,100893.31
2023-03-29T18:38:40.436Z,100889.94
2023-03-29T18:41:08.491Z,100889.56
2023-03-29T18:43:36.980Z,100880.03
2023-03-29T18:46:04.336Z,100879.69
2023-03-29T18:48:31.187Z,100878.03
2023-03-29T18:50:58.145Z,100881.00
2023-03-29T18:53:24.929Z,100879.94
2023-03-29T18:55:51.503Z,100888.81
2023-03-29T18:58:20.185Z,100892.44
2023-03-29T19:00:46.681Z,100879.47
2023-03-29T19:03:13.462Z,100871.91
2023-03-29T19:05:40.219Z,100876.16
2023-03-29T19:08:08.345Z,100883.25
2023-03-29T19:10:36.737Z,100884.31
2023-03-29T19:13:04.266Z,100881.59
2023-03-29T19:15:31.487Z,100870.97
2023-03-29T19:17:57.984Z,100868.50
2023-03-29T19:20:25.481Z,100868.75
2023-03-29T19:22:53.189Z,100861.94
2023-03-29T19:25:19.975Z,100870.56
2023-03-29T19:27:46.421Z,100860.28
2023-03-29T19:30:13.715Z,100864.28
2023-03-29T19:32:40.385Z,100864.28
2023-03-29T19:35:09.410Z,100868.03
2023-03-29T19:37:36.066Z,100851.44
2023-03-29T19:40:02.614Z,100838.69
2023-03-29T19:42:29.124Z,100829.13
2023-03-29T19:44:55.601Z,100825.13
2023-03-29T19:47:22.057Z,100824.06
2023-03-29T19:49:48.513Z,100812.16
2023-03-29T19:52:14.948Z,100804.25
2023-03-29T19:54:42.437Z,100811.09
2023-03-29T19:57:09.209Z,100803.75
2023-03-29T19:59:37.591Z,100800.84
2023-03-29T20:02:04.602Z,100792.91
2023-03-29T20:04:33.166Z,100794.59
2023-03-29T20:06:59.840Z,100778.31
2023-03-29T20:09:26.245Z,100781.03
2023-03-29T20:11:52.694Z,100776.63
2023-03-29T20:14:19.156Z,100765.78
2023-03-29T20:16:46.250Z,100770.19
2023-03-29T20:19:14.175Z,100766.41
2023-03-29T20:21:40.706Z,100756.13
2023-03-29T20:24:08.659Z,100751.84
2023-03-29T20:26:35.551Z,100757.53
2023-03-29T20:29:02.054Z,100755.63
2023-03-29T20:31:29.433Z,100758.09
2023-03-29T20:33:57.534Z,100743.47
2023-03-29T20:36:24.566Z,100743.97
2023-03-29T20:38:51.311Z,100729.31
2023-03-29T20:41:19.575Z,100730.00
2023-03-29T20:43:46.158Z,100708.66
2023-03-29T20:46:18.173Z,100696.72
2023-03-29T20:48:54.335Z,100696.22
2023-03-29T20:51:30.185Z,100691.94
2023-03-29T20:54:04.724Z,100689.09
2023-03-29T20:56:33.242Z,100676.91
2023-03-29T20:58:59.751Z,100683.25
2023-03-29T21:01:28.339Z,100679.22
2023-03-29T21:03:55.017Z,100673.28
2023-03-29T21:06:24.200Z,100675.19
2023-03-29T21:08:52.424Z,100672.97
2023-03-29T21:11:20.105Z,100658.00
2023-03-29T21:13:46.634Z,100649.28
2023-03-29T21:16:13.496Z,100655.22
2023-03-29T21:18:40.505Z,100648.13
2023-03-29T21:21:12.896Z,100655.22
2023-03-29T21:23:39.725Z,100659.81
2023-03-29T21:26:09.557Z,100663.34
2023-03-29T21:28:37.469Z,100648.59
2023-03-29T21:31:05.848Z,100642.69
2023-03-29T21:33:33.718Z,100650.09
2023-03-29T21:36:00.785Z,100635.22
2023-03-29T21:38:28.463Z,100637.84
2023-03-29T21:40:55.086Z,100630.34
2023-03-29T21:43:21.527Z,100623.28
2023-03-29T21:45:49.418Z,100627.06
2023-03-29T21:48:17.151Z,100630.59
2023-03-29T21:50:43.845Z,100615.38
2023-03-29T21:53:10.428Z,100619.91
2023-03-29T21:55:36.922Z,100619.16
2023-03-29T21:58:04.332Z,100609.63
2023-03-29T22:00:31.599Z,100597.38
2023-03-29T22:02:58.161Z,100607.75
2023-03-29T22:05:26.076Z,100596.81
2023-03-29T22:07:52.760Z,100593.84
2023-03-29T22:10:23.036Z,100598.09
2023-03-29T22:12:50.712Z,100586.44
2023-03-29T22:15:20.955Z,100587.75
2023-03-29T22:17:47.813Z,100585.28
2023-03-29T22:20:15.015Z,100579.94
2023-03-29T22:22:49.741Z,100589.25
2023-03-29T22:25:17.890Z,100590.78
2023-03-29T22:27:46.323Z,100594.81
2023-03-29T22:30:14.276Z,100590.47
2023-03-29T22:32:41.130Z,100590.66
2023-03-29T22:35:08.192Z,100587.94
2023-03-29T22:37:41.122Z,100586.28
2023-03-29T22:40:09.757Z,100596.91
2023-03-29T22:42:36.501Z,100584.47
2023-03-29T22:45:03.253Z,100589.06
2023-03-29T22:47:29.752Z,100589.56
2023-03-29T22:49:56.366Z,100590.91
2023-03-29T22:52:22.765Z,100577.56
2023-03-29T22:54:49.181Z,100574.25
2023-03-29T22:57:15.669Z,100575.59
2023-03-29T22:59:42.251Z,100563.09
2023-03-29T23:02:08.720Z,100565.81
2023-03-29T23:04:36.618Z,100565.97
2023-03-29T23:07:03.123Z,100558.34
2023-03-29T23:09:29.588Z,100553.75
2023-03-29T23:11:56.135Z,100561.78
2023-03-29T23:14:22.739Z,100556.34
2023-03-29T23:16:50.422Z,100551.38
2023-03-29T23:19:16.894Z,100549.75
2023-03-29T23:21:43.329Z,100541.72
2023-03-29T23:24:09.743Z,100545.50
2023-03-29T23:26:37.543Z,100537.59
2023-03-29T23:29:04.129Z,100539.00
2023-03-29T23:31:30.623Z,100537.09
2023-03-29T23:33:59.012Z,100537.34
2023-03-29T23:36:27.097Z,100534.19
2023-03-29T23:38:53.541Z,100537.22
2023-03-29T23:41:20.301Z,100532.59
2023-03-29T23:43:50.060Z,100522.31
2023-03-29T23:46:18.699Z,100522.31
2023-03-29T23:48:47.026Z,100515.00
2023-03-29T23:51:13.547Z,100517.88
2023-03-29T23:53:40.360Z,100523.31
2023-03-29T23:56:07.628Z,100519.84
2023-03-29T23:58:37.194Z,100520.97
